createdAt,value
2022-09-09T00:00:17.812Z,11.40
2022-09-09T00:01:36.270Z,11.34
2022-09-09T00:02:40.276Z,11.31
2022-09-09T00:03:52.975Z,11.27
2022-09-09T00:04:58.150Z,11.29
2022-09-09T00:06:10.536Z,11.26
2022-09-09T00:07:28.045Z,11.24
2022-09-09T00:08:41.717Z,11.29
2022-09-09T00:09:51.546Z,11.28
2022-09-09T00:10:57.245Z,11.19
2022-09-09T00:12:03.894Z,11.21
2022-09-09T00:13:25.980Z,11.26
2022-09-09T00:14:38.673Z,11.17
2022-09-09T00:15:46.613Z,11.18
2022-09-09T00:16:52.980Z,11.09
2022-09-09T00:18:07.054Z,11.06
2022-09-09T00:19:13.690Z,11.06
2022-09-09T00:20:25.237Z,11.00
2022-09-09T00:21:31.505Z,11.06
2022-09-09T00:22:38.889Z,11.02
2022-09-09T00:23:44.224Z,10.97
2022-09-09T00:24:51.577Z,11.07
2022-09-09T00:26:05.782Z,11.00
2022-09-09T00:27:10.920Z,10.96
2022-09-09T00:28:21.943Z,10.85
2022-09-09T00:29:28.412Z,10.90
2022-09-09T00:30:36.720Z,10.84
2022-09-09T00:31:39.978Z,10.76
2022-09-09T00:32:44.319Z,10.81
2022-09-09T00:33:50.151Z,10.91
2022-09-09T00:34:58.650Z,10.91
2022-09-09T00:36:02.991Z,10.91
2022-09-09T00:37:08.157Z,10.94
2022-09-09T00:38:17.140Z,10.98
2022-09-09T00:39:26.864Z,10.88
2022-09-09T00:40:43.074Z,10.92
2022-09-09T00:42:01.920Z,11.01
2022-09-09T00:43:07.784Z,10.96
2022-09-09T00:44:20.369Z,10.95
2022-09-09T00:45:40.907Z,10.93
2022-09-09T00:46:49.217Z,10.97
2022-09-09T00:47:53.351Z,11.00
2022-09-09T00:49:01.546Z,10.99
2022-09-09T00:50:23.963Z,11.00
2022-09-09T00:51:28.155Z,10.90
2022-09-09T00:52:50.296Z,10.93
2022-09-09T00:54:09.989Z,10.94
2022-09-09T00:55:14.228Z,11.06
2022-09-09T00:56:22.328Z,11.02
2022-09-09T00:57:34.717Z,10.97
2022-09-09T00:58:38.215Z,10.88
2022-09-09T00:59:49.440Z,10.75
2022-09-09T01:00:55.044Z,10.70
2022-09-09T01:01:59.542Z,10.76
2022-09-09T01:03:27.140Z,10.72
2022-09-09T01:04:31.768Z,10.74
2022-09-09T01:05:40.919Z,10.73
2022-09-09T01:06:46.512Z,10.62
2022-09-09T01:07:53.028Z,10.51
2022-09-09T01:09:16.181Z,10.47
2022-09-09T01:10:26.517Z,10.54
2022-09-09T01:11:37.185Z,10.55
2022-09-09T01:12:44.042Z,10.57
2022-09-09T01:13:53.604Z,10.63
2022-09-09T01:15:10.689Z,10.56
2022-09-09T01:16:17.878Z,10.57
2022-09-09T01:17:23.129Z,10.55
2022-09-09T01:18:30.290Z,10.53
2022-09-09T01:19:41.358Z,10.53
2022-09-09T01:21:03.934Z,10.49
2022-09-09T01:22:12.100Z,10.52
2022-09-09T01:23:32.346Z,10.50
2022-09-09T01:24:49.220Z,10.44
2022-09-09T01:26:13.931Z,10.50
2022-09-09T01:27:19.219Z,10.55
2022-09-09T01:28:23.444Z,10.50
2022-09-09T01:29:31.691Z,10.50
2022-09-09T01:30:39.482Z,10.50
2022-09-09T01:31:57.992Z,10.45
2022-09-09T01:33:02.440Z,10.40
2022-09-09T01:34:13.080Z,10.33
2022-09-09T01:35:19.057Z,10.31
2022-09-09T01:36:26.416Z,10.41
2022-09-09T01:37:28.878Z,10.39
2022-09-09T01:38:34.325Z,10.36
2022-09-09T01:39:40.473Z,10.34
2022-09-09T01:40:46.089Z,10.35
2022-09-09T01:41:49.904Z,10.40
2022-09-09T01:42:56.440Z,10.42
2022-09-09T01:44:02.974Z,10.49
2022-09-09T01:45:08.666Z,10.46
2022-09-09T01:46:14.075Z,10.48
2022-09-09T01:47:19.471Z,10.45
2022-09-09T01:48:33.856Z,10.43
2022-09-09T01:49:41.586Z,10.42
2022-09-09T01:50:46.877Z,10.47
2022-09-09T01:51:52.460Z,10.44
2022-09-09T01:53:01.470Z,10.43
2022-09-09T01:54:08.259Z,10.44
2022-09-09T01:55:11.890Z,10.43
2022-09-09T01:56:37.187Z,10.48
2022-09-09T01:57:56.474Z,10.42
2022-09-09T01:59:04.704Z,10.39
2022-09-09T02:00:13.618Z,10.41
2022-09-09T02:01:24.262Z,10.40
2022-09-09T02:02:30.934Z,10.42
2022-09-09T02:03:37.915Z,10.43
2022-09-09T02:04:49.981Z,10.49
2022-09-09T02:06:00.375Z,10.43
2022-09-09T02:07:07.421Z,10.45
2022-09-09T02:08:13.877Z,10.38
2022-09-09T02:09:25.514Z,10.34
2022-09-09T02:10:37.229Z,10.35
2022-09-09T02:11:45.795Z,10.34
2022-09-09T02:12:54.206Z,10.29
2022-09-09T02:14:14.314Z,10.33
2022-09-09T02:15:21.802Z,10.26
2022-09-09T02:16:28.231Z,10.31
2022-09-09T02:17:33.811Z,10.19
2022-09-09T02:18:58.728Z,10.15
2022-09-09T02:20:10.624Z,10.08
2022-09-09T02:21:16.955Z,10.04
2022-09-09T02:22:23.135Z,10.12
2022-09-09T02:23:27.318Z,10.23
2022-09-09T02:24:35.882Z,10.18
2022-09-09T02:25:43.793Z,10.26
2022-09-09T02:26:55.016Z,10.18
2022-09-09T02:28:00.622Z,10.23
2022-09-09T02:29:05.379Z,10.27
2022-09-09T02:30:09.512Z,10.27
2022-09-09T02:31:19.271Z,10.20
2022-09-09T02:32:24.447Z,10.21
2022-09-09T02:33:29.728Z,10.14
2022-09-09T02:34:36.258Z,10.16
2022-09-09T02:35:42.258Z,10.10
2022-09-09T02:36:47.868Z,10.11
2022-09-09T02:37:58.093Z,10.13
2022-09-09T02:39:02.933Z,10.14
2022-09-09T02:40:10.056Z,10.09
2022-09-09T02:41:19.956Z,10.11
2022-09-09T02:42:22.836Z,10.10
2022-09-09T02:43:27.186Z,10.18
2022-09-09T02:44:29.949Z,10.11
2022-09-09T02:45:38.121Z,10.09
2022-09-09T02:46:52.107Z,10.08
2022-09-09T02:48:02.920Z,10.11
2022-09-09T02:49:08.212Z,10.05
2022-09-09T02:50:18.087Z,9.99
2022-09-09T02:51:27.422Z,10.02
2022-09-09T02:52:33.037Z,9.98
2022-09-09T02:53:43.122Z,9.90
2022-09-09T02:54:46.731Z,9.92
2022-09-09T02:55:51.489Z,9.94
2022-09-09T02:56:59.066Z,9.92
2022-09-09T02:58:06.645Z,9.96
2022-09-09T02:59:11.717Z,9.96
2022-09-09T03:00:16.582Z,9.88
2022-09-09T03:01:22.230Z,9.80
2022-09-09T03:02:27.121Z,9.81
2022-09-09T03:03:33.037Z,9.75
2022-09-09T03:04:40.210Z,9.76
2022-09-09T03:05:44.201Z,9.75
2022-09-09T03:06:48.460Z,9.81
2022-09-09T03:07:54.842Z,9.74
2022-09-09T03:09:01.157Z,9.76
2022-09-09T03:10:06.909Z,9.74
2022-09-09T03:11:11.151Z,9.75
2022-09-09T03:12:13.621Z,9.71
2022-09-09T03:13:19.600Z,9.69
2022-09-09T03:14:26.387Z,9.71
2022-09-09T03:15:32.076Z,9.75
2022-09-09T03:16:35.455Z,9.78
2022-09-09T03:17:38.969Z,9.77
2022-09-09T03:18:42.787Z,9.78
2022-09-09T03:19:47.348Z,9.81
2022-09-09T03:20:50.852Z,9.76
2022-09-09T03:21:56.968Z,9.75
2022-09-09T03:23:01.731Z,9.78
2022-09-09T03:24:04.292Z,9.73
2022-09-09T03:25:08.622Z,9.71
2022-09-09T03:26:15.746Z,9.77
2022-09-09T03:27:21.282Z,9.61
2022-09-09T03:28:26.354Z,9.69
2022-09-09T03:29:32.157Z,9.77
2022-09-09T03:30:36.289Z,9.62
2022-09-09T03:31:41.620Z,9.76
2022-09-09T03:32:48.763Z,9.69
2022-09-09T03:33:50.459Z,9.67
2022-09-09T03:34:54.215Z,9.72
2022-09-09T03:35:59.674Z,9.72
2022-09-09T03:37:03.396Z,9.77
2022-09-09T03:38:05.836Z,9.86
2022-09-09T03:39:09.759Z,9.82
2022-09-09T03:40:14.257Z,9.82
2022-09-09T03:41:20.216Z,9.82
2022-09-09T03:42:25.187Z,9.85
2022-09-09T03:43:30.731Z,9.82
2022-09-09T03:44:34.689Z,9.80
2022-09-09T03:45:38.031Z,9.81
2022-09-09T03:46:44.483Z,9.79
2022-09-09T03:47:47.655Z,9.86
2022-09-09T03:48:53.525Z,9.91
2022-09-09T03:49:59.755Z,9.87
2022-09-09T03:51:04.214Z,9.92
2022-09-09T03:52:10.400Z,9.82
2022-09-09T03:53:13.602Z,9.92
2022-09-09T03:54:17.004Z,9.93
2022-09-09T03:55:22.542Z,9.95
2022-09-09T03:56:26.312Z,9.88
2022-09-09T03:57:32.577Z,9.97
2022-09-09T03:58:36.450Z,10.00
2022-09-09T03:59:41.619Z,10.11
2022-09-09T04:00:45.469Z,10.16
2022-09-09T04:01:48.871Z,10.12
2022-09-09T04:02:55.882Z,10.01
2022-09-09T04:03:59.934Z,10.11
2022-09-09T04:05:05.420Z,10.18
2022-09-09T04:06:11.014Z,10.32
2022-09-09T04:07:13.893Z,10.36
2022-09-09T04:08:17.712Z,10.33
2022-09-09T04:09:22.461Z,10.18
2022-09-09T04:10:26.520Z,10.09
2022-09-09T04:11:31.400Z,10.07
2022-09-09T04:12:37.827Z,10.08
2022-09-09T04:13:42.233Z,10.01
2022-09-09T04:14:46.984Z,10.05
2022-09-09T04:16:04.884Z,9.90
2022-09-09T04:17:08.416Z,9.97
2022-09-09T04:18:12.120Z,9.92
2022-09-09T04:19:14.892Z,9.88
2022-09-09T04:20:19.662Z,9.87
2022-09-09T04:21:23.379Z,9.90
2022-09-09T04:22:27.404Z,10.01
2022-09-09T04:23:32.892Z,10.03
2022-09-09T04:24:36.189Z,9.99
2022-09-09T04:25:42.328Z,9.86
2022-09-09T04:26:45.905Z,9.93
2022-09-09T04:27:54.485Z,10.09
2022-09-09T04:28:58.708Z,10.06
2022-09-09T04:30:01.639Z,10.05
2022-09-09T04:31:10.779Z,10.04
2022-09-09T04:32:16.703Z,10.14
2022-09-09T04:33:21.360Z,10.11
2022-09-09T04:34:25.593Z,10.18
2022-09-09T04:35:31.710Z,10.22
2022-09-09T04:36:36.885Z,10.28
2022-09-09T04:37:42.577Z,10.21
2022-09-09T04:38:46.325Z,10.33
2022-09-09T04:39:51.084Z,10.45
2022-09-09T04:40:57.945Z,10.33
2022-09-09T04:42:02.139Z,10.34
2022-09-09T04:43:06.368Z,10.43
2022-09-09T04:44:09.880Z,10.31
2022-09-09T04:45:14.438Z,10.31
2022-09-09T04:46:20.964Z,10.31
2022-09-09T04:47:29.400Z,10.35
2022-09-09T04:48:33.273Z,10.35
2022-09-09T04:49:38.059Z,10.27
2022-09-09T04:50:42.610Z,10.27
2022-09-09T04:51:49.854Z,10.32
2022-09-09T04:52:53.902Z,10.52
2022-09-09T04:53:57.192Z,10.68
2022-09-09T04:55:00.038Z,10.70
2022-09-09T04:56:10.770Z,10.77
2022-09-09T04:57:18.750Z,10.91
2022-09-09T04:58:23.007Z,10.97
2022-09-09T04:59:26.101Z,10.99
2022-09-09T05:00:34.390Z,10.91
2022-09-09T05:01:37.391Z,10.68
2022-09-09T05:02:44.734Z,11.08
2022-09-09T05:03:48.773Z,11.37
2022-09-09T05:04:54.076Z,11.47
2022-09-09T05:05:58.197Z,11.48
2022-09-09T05:07:02.024Z,11.52
2022-09-09T05:08:06.471Z,11.66
2022-09-09T05:09:11.742Z,11.49
2022-09-09T05:10:17.648Z,11.31
2022-09-09T05:11:23.564Z,11.34
2022-09-09T05:12:26.233Z,11.39
2022-09-09T05:13:29.395Z,11.54
2022-09-09T05:14:32.930Z,11.65
2022-09-09T05:15:36.750Z,11.80
2022-09-09T05:16:41.225Z,11.90
2022-09-09T05:17:46.255Z,12.16
2022-09-09T05:18:49.990Z,12.41
2022-09-09T05:19:53.797Z,12.51
2022-09-09T05:21:02.874Z,12.56
2022-09-09T05:22:07.493Z,12.57
2022-09-09T05:23:15.802Z,12.65
2022-09-09T05:24:19.521Z,12.94
2022-09-09T05:25:23.952Z,12.75
2022-09-09T05:26:27.256Z,12.76
2022-09-09T05:27:32.748Z,12.62
2022-09-09T05:28:37.507Z,12.62
2022-09-09T05:29:42.366Z,12.65
2022-09-09T05:30:48.373Z,12.91
2022-09-09T05:31:51.803Z,13.34
2022-09-09T05:32:59.660Z,13.91
2022-09-09T05:34:02.931Z,14.49
2022-09-09T05:35:06.881Z,14.43
2022-09-09T05:36:14.473Z,14.81
2022-09-09T05:37:18.495Z,14.63
2022-09-09T05:38:24.761Z,14.18
2022-09-09T05:39:27.375Z,13.95
2022-09-09T05:40:32.876Z,13.76
2022-09-09T05:41:38.782Z,13.77
2022-09-09T05:42:42.951Z,13.83
2022-09-09T05:43:48.299Z,13.76
2022-09-09T05:44:56.789Z,13.58
2022-09-09T05:46:07.843Z,13.66
2022-09-09T05:47:11.445Z,13.50
2022-09-09T05:48:16.531Z,13.60
2022-09-09T05:49:20.331Z,13.66
2022-09-09T05:50:25.980Z,13.54
2022-09-09T05:51:31.524Z,13.45
2022-09-09T05:52:36.607Z,13.70
2022-09-09T05:53:42.079Z,14.39
2022-09-09T05:54:47.351Z,15.41
2022-09-09T05:55:52.954Z,15.62
2022-09-09T05:56:57.724Z,15.34
2022-09-09T05:58:00.497Z,15.06
2022-09-09T05:59:03.792Z,15.46
2022-09-09T06:00:11.178Z,15.65
2022-09-09T06:01:18.218Z,15.27
2022-09-09T06:02:22.420Z,15.05
2022-09-09T06:03:29.892Z,14.87
2022-09-09T06:04:34.893Z,14.82
2022-09-09T06:05:40.034Z,14.60
2022-09-09T06:06:43.462Z,14.71
2022-09-09T06:07:49.694Z,14.54
2022-09-09T06:08:54.544Z,14.45
2022-09-09T06:09:58.584Z,14.68
2022-09-09T06:11:06.463Z,14.89
2022-09-09T06:12:10.700Z,15.01
2022-09-09T06:13:17.583Z,15.22
2022-09-09T06:14:22.310Z,15.19
2022-09-09T06:15:29.266Z,15.33
2022-09-09T06:16:36.251Z,15.32
2022-09-09T06:17:40.445Z,15.41
2022-09-09T06:18:44.472Z,15.43
2022-09-09T06:19:48.291Z,15.39
2022-09-09T06:21:00.846Z,15.36
2022-09-09T06:22:04.094Z,15.31
2022-09-09T06:23:08.112Z,15.32
2022-09-09T06:24:12.558Z,15.30
2022-09-09T06:25:16.066Z,15.22
2022-09-09T06:26:21.437Z,15.50
2022-09-09T06:27:25.474Z,15.60
2022-09-09T06:28:28.558Z,15.66
2022-09-09T06:29:32.067Z,15.95
2022-09-09T06:30:36.094Z,16.07
2022-09-09T06:31:40.888Z,16.20
2022-09-09T06:32:46.434Z,16.52
2022-09-09T06:33:51.297Z,17.01
2022-09-09T06:34:55.847Z,17.41
2022-09-09T06:35:58.999Z,17.26
2022-09-09T06:37:01.819Z,17.35
2022-09-09T06:38:09.081Z,17.65
2022-09-09T06:39:15.006Z,18.30
2022-09-09T06:40:20.117Z,18.60
2022-09-09T06:41:24.725Z,19.42
2022-09-09T06:42:27.808Z,20.92
2022-09-09T06:43:49.894Z,22.59
2022-09-09T06:44:55.603Z,24.49
2022-09-09T06:46:03.243Z,25.69
2022-09-09T06:47:07.050Z,27.53
2022-09-09T06:48:10.714Z,28.12
2022-09-09T06:49:15.078Z,29.18
2022-09-09T06:50:20.499Z,29.98
2022-09-09T06:51:24.919Z,30.73
2022-09-09T06:52:29.047Z,30.69
2022-09-09T06:53:34.807Z,30.72
2022-09-09T06:54:40.409Z,30.06
2022-09-09T06:55:46.219Z,30.40
2022-09-09T06:56:53.777Z,29.85
2022-09-09T06:58:01.728Z,30.19
2022-09-09T06:59:06.868Z,31.38
2022-09-09T07:00:16.079Z,32.08
2022-09-09T07:01:24.109Z,32.10
2022-09-09T07:02:27.738Z,32.58
2022-09-09T07:03:30.511Z,32.53
2022-09-09T07:04:34.205Z,32.22
2022-09-09T07:05:36.873Z,32.84
2022-09-09T07:06:45.781Z,32.78
2022-09-09T07:07:52.332Z,33.03
2022-09-09T07:09:00.234Z,32.47
2022-09-09T07:10:08.284Z,31.73
2022-09-09T07:11:12.886Z,31.63
2022-09-09T07:12:18.158Z,32.23
2022-09-09T07:13:27.103Z,32.37
2022-09-09T07:14:31.130Z,32.80
2022-09-09T07:15:40.167Z,32.65
2022-09-09T07:16:44.301Z,31.79
2022-09-09T07:17:47.378Z,31.81
2022-09-09T07:18:55.167Z,31.72
2022-09-09T07:19:58.682Z,31.17
2022-09-09T07:21:03.866Z,32.05
2022-09-09T07:22:09.285Z,32.21
2022-09-09T07:23:13.375Z,32.45
2022-09-09T07:24:17.019Z,32.36
2022-09-09T07:25:21.522Z,32.46
2022-09-09T07:26:26.698Z,32.57
2022-09-09T07:27:29.576Z,33.12
2022-09-09T07:28:33.356Z,32.45
2022-09-09T07:29:37.048Z,31.98
2022-09-09T07:30:41.353Z,31.13
2022-09-09T07:31:44.673Z,31.38
2022-09-09T07:32:53.353Z,32.19
2022-09-09T07:33:56.842Z,32.15
2022-09-09T07:35:00.062Z,32.60
2022-09-09T07:36:07.537Z,33.26
2022-09-09T07:37:13.977Z,33.59
2022-09-09T07:38:20.415Z,33.81
2022-09-09T07:39:24.017Z,32.80
2022-09-09T07:40:28.764Z,32.73
2022-09-09T07:41:36.248Z,32.31
2022-09-09T07:42:38.594Z,31.43
2022-09-09T07:43:45.390Z,31.81
2022-09-09T07:44:52.088Z,31.94
2022-09-09T07:46:04.298Z,32.29
2022-09-09T07:47:07.771Z,32.76
2022-09-09T07:48:13.468Z,32.20
2022-09-09T07:49:17.077Z,32.98
2022-09-09T07:50:19.706Z,33.31
2022-09-09T07:51:26.178Z,33.49
2022-09-09T07:52:32.815Z,33.76
2022-09-09T07:53:38.306Z,33.79
2022-09-09T07:54:42.182Z,31.28
2022-09-09T07:55:46.835Z,31.01
2022-09-09T07:56:52.370Z,30.63
2022-09-09T07:57:57.259Z,28.76
2022-09-09T07:59:03.551Z,27.99
2022-09-09T08:00:09.176Z,28.64
2022-09-09T08:01:21.799Z,28.15
2022-09-09T08:02:26.084Z,28.57
2022-09-09T08:03:29.422Z,28.72
2022-09-09T08:04:33.720Z,28.07
2022-09-09T08:05:36.520Z,27.98
2022-09-09T08:06:41.462Z,27.59
2022-09-09T08:07:48.499Z,25.81
2022-09-09T08:08:52.881Z,24.03
2022-09-09T08:09:56.144Z,22.08
2022-09-09T08:11:09.478Z,21.65
2022-09-09T08:12:14.538Z,21.64
2022-09-09T08:13:19.819Z,23.27
2022-09-09T08:14:24.774Z,24.37
2022-09-09T08:15:28.198Z,25.75
2022-09-09T08:16:35.847Z,26.81
2022-09-09T08:17:39.479Z,26.30
2022-09-09T08:18:43.412Z,26.23
2022-09-09T08:19:47.101Z,26.34
2022-09-09T08:20:52.189Z,26.51
2022-09-09T08:21:55.702Z,26.46
2022-09-09T08:23:00.649Z,26.57
2022-09-09T08:24:04.419Z,26.51
2022-09-09T08:25:09.038Z,26.29
2022-09-09T08:26:15.173Z,25.88
2022-09-09T08:27:18.542Z,25.45
2022-09-09T08:28:21.641Z,25.50
2022-09-09T08:29:24.821Z,25.10
2022-09-09T08:30:30.103Z,25.07
2022-09-09T08:31:37.275Z,24.83
2022-09-09T08:32:45.557Z,24.96
2022-09-09T08:33:47.928Z,25.64
2022-09-09T08:34:54.583Z,25.56
2022-09-09T08:35:59.057Z,25.25
2022-09-09T08:37:05.453Z,25.13
2022-09-09T08:38:11.211Z,25.20
2022-09-09T08:39:18.406Z,25.23
2022-09-09T08:40:25.159Z,25.31
2022-09-09T08:41:37.853Z,25.36
2022-09-09T08:42:48.448Z,25.19
2022-09-09T08:43:53.214Z,24.98
2022-09-09T08:45:04.265Z,24.79
2022-09-09T08:46:12.789Z,25.09
2022-09-09T08:47:35.070Z,24.24
2022-09-09T08:48:54.862Z,24.14
2022-09-09T08:50:04.317Z,24.79
2022-09-09T08:51:08.748Z,24.69
2022-09-09T08:52:20.073Z,24.37
2022-09-09T08:53:31.419Z,24.60
2022-09-09T08:54:51.521Z,24.68
2022-09-09T08:55:56.916Z,24.76
2022-09-09T08:57:02.216Z,25.00
2022-09-09T08:58:15.759Z,24.74
2022-09-09T08:59:20.819Z,25.22
2022-09-09T09:00:26.727Z,25.37
2022-09-09T09:01:31.534Z,25.32
2022-09-09T09:02:42.835Z,24.97
2022-09-09T09:03:49.142Z,24.73
2022-09-09T09:05:12.603Z,24.73
2022-09-09T09:06:44.106Z,24.39
2022-09-09T09:07:58.583Z,24.75
2022-09-09T09:09:04.902Z,24.78
2022-09-09T09:10:37.714Z,24.29
2022-09-09T09:11:19.323Z,24.74
2022-09-09T09:12:25.659Z,25.27
2022-09-09T09:13:45.969Z,25.01
2022-09-09T09:14:52.046Z,25.19
2022-09-09T09:15:59.267Z,25.71
2022-09-09T09:17:06.955Z,25.63
2022-09-09T09:18:13.587Z,24.89
2022-09-09T09:19:18.649Z,25.37
2022-09-09T09:20:26.472Z,25.50
2022-09-09T09:21:37.973Z,25.16
2022-09-09T09:22:44.034Z,24.25
2022-09-09T09:23:54.385Z,24.18
2022-09-09T09:25:08.013Z,24.25
2022-09-09T09:26:13.719Z,24.37
2022-09-09T09:27:18.174Z,24.78
2022-09-09T09:28:26.263Z,24.77
2022-09-09T09:29:31.659Z,24.69
2022-09-09T09:30:41.099Z,24.14
2022-09-09T09:31:47.550Z,23.82
2022-09-09T09:32:54.500Z,23.57
2022-09-09T09:34:00.708Z,23.93
2022-09-09T09:35:14.371Z,23.26
2022-09-09T09:36:18.728Z,23.29
2022-09-09T09:37:36.599Z,23.31
2022-09-09T09:40:05.084Z,22.79
2022-09-09T09:40:59.280Z,23.28
2022-09-09T09:42:13.891Z,23.52
2022-09-09T09:43:19.825Z,23.27
2022-09-09T09:44:24.071Z,22.79
2022-09-09T09:45:30.709Z,22.95
2022-09-09T09:46:34.548Z,23.26
2022-09-09T09:47:40.736Z,23.55
2022-09-09T09:48:48.951Z,23.80
2022-09-09T09:49:54.547Z,23.83
2022-09-09T09:51:00.665Z,23.74
2022-09-09T09:52:07.256Z,23.60
2022-09-09T09:53:21.770Z,23.57
2022-09-09T09:54:34.366Z,23.88
2022-09-09T09:55:42.675Z,24.08
2022-09-09T09:56:47.750Z,23.75
2022-09-09T09:57:50.367Z,23.24
2022-09-09T09:58:54.628Z,23.09
2022-09-09T10:00:10.369Z,23.32
2022-09-09T10:01:24.585Z,23.34
2022-09-09T10:02:33.903Z,23.17
2022-09-09T10:03:41.285Z,23.48
2022-09-09T10:04:46.299Z,23.27
2022-09-09T10:05:49.983Z,22.94
2022-09-09T10:06:55.210Z,23.09
2022-09-09T10:08:04.090Z,23.26
2022-09-09T10:09:27.118Z,23.30
2022-09-09T10:10:35.631Z,23.42
2022-09-09T10:11:44.443Z,22.96
2022-09-09T10:12:51.495Z,23.61
2022-09-09T10:13:57.298Z,23.92
2022-09-09T10:15:02.360Z,23.69
2022-09-09T10:16:11.216Z,23.72
2022-09-09T10:17:27.545Z,23.36
2022-09-09T10:18:42.131Z,23.47
2022-09-09T10:19:49.083Z,23.68
2022-09-09T10:21:10.646Z,24.10
2022-09-09T10:22:20.535Z,24.18
2022-09-09T10:23:35.419Z,24.15
2022-09-09T10:24:41.679Z,24.22
2022-09-09T10:25:58.936Z,23.75
2022-09-09T10:27:16.123Z,23.91
2022-09-09T10:28:31.943Z,23.76
2022-09-09T10:29:39.521Z,23.78
2022-09-09T10:30:45.369Z,23.21
2022-09-09T10:31:53.054Z,23.44
2022-09-09T10:33:06.268Z,23.68
2022-09-09T10:34:17.994Z,23.25
2022-09-09T10:35:30.167Z,23.31
2022-09-09T10:36:34.498Z,23.40
2022-09-09T10:37:46.658Z,23.36
2022-09-09T10:40:06.688Z,23.98
2022-09-09T10:41:31.195Z,24.01
2022-09-09T10:42:36.099Z,23.80
2022-09-09T10:44:00.319Z,23.66
2022-09-09T10:45:07.458Z,24.12
2022-09-09T10:46:15.705Z,24.10
2022-09-09T10:47:27.829Z,23.95
2022-09-09T10:48:32.965Z,23.77
2022-09-09T10:49:53.859Z,23.60
2022-09-09T10:51:03.790Z,23.85
2022-09-09T10:52:19.341Z,23.92
2022-09-09T10:53:25.251Z,23.67
2022-09-09T10:54:40.612Z,23.76
2022-09-09T10:55:48.971Z,23.47
2022-09-09T10:56:57.291Z,23.44
2022-09-09T10:58:02.884Z,23.59
2022-09-09T10:59:11.809Z,23.63
2022-09-09T11:00:17.612Z,23.30
2022-09-09T11:01:22.734Z,23.31
2022-09-09T11:02:31.526Z,23.18
2022-09-09T11:03:36.742Z,23.26
2022-09-09T11:04:45.153Z,23.57
2022-09-09T11:05:51.013Z,23.77
2022-09-09T11:06:56.131Z,23.55
2022-09-09T11:08:01.368Z,23.48
2022-09-09T11:09:06.522Z,23.62
2022-09-09T11:10:12.764Z,23.60
2022-09-09T11:11:24.452Z,23.49
2022-09-09T11:12:29.223Z,23.48
2022-09-09T11:13:43.138Z,23.31
2022-09-09T11:14:56.529Z,23.30
2022-09-09T11:16:19.320Z,23.46
2022-09-09T11:17:29.770Z,23.07
2022-09-09T11:18:35.941Z,22.98
2022-09-09T11:19:44.520Z,23.27
2022-09-09T11:20:50.537Z,23.27
2022-09-09T11:21:55.391Z,22.99
2022-09-09T11:23:01.714Z,23.41
2022-09-09T11:24:06.891Z,23.37
2022-09-09T11:25:12.164Z,23.55
2022-09-09T11:26:21.621Z,23.61
2022-09-09T11:27:34.304Z,23.79
2022-09-09T11:28:41.605Z,23.65
2022-09-09T11:29:50.877Z,23.63
2022-09-09T11:30:58.363Z,23.41
2022-09-09T11:32:03.424Z,23.33
2022-09-09T11:33:09.829Z,23.25
2022-09-09T11:34:18.841Z,23.08
2022-09-09T11:35:26.970Z,23.05
2022-09-09T11:36:37.150Z,22.99
2022-09-09T11:37:47.349Z,23.17
2022-09-09T11:38:52.825Z,23.22
2022-09-09T11:40:00.157Z,23.39
2022-09-09T11:41:08.713Z,22.93
2022-09-09T11:42:18.009Z,22.56
2022-09-09T11:43:23.672Z,22.54
2022-09-09T12:10:08.729Z,22.72
2022-09-09T12:11:13.486Z,22.63
2022-09-09T12:12:19.717Z,22.42
2022-09-09T12:13:24.830Z,22.44
2022-09-09T12:14:39.999Z,22.46
2022-09-09T12:15:51.140Z,22.17
2022-09-09T12:16:54.136Z,22.31
2022-09-09T12:18:03.100Z,22.68
2022-09-09T12:19:08.008Z,22.67
2022-09-09T12:20:19.451Z,22.90
2022-09-09T12:21:24.419Z,22.80
2022-09-09T12:22:29.488Z,22.71
2022-09-09T12:23:34.828Z,22.53
2022-09-09T12:24:43.264Z,22.41
2022-09-09T12:25:51.391Z,22.45
2022-09-09T12:27:00.220Z,22.36
2022-09-09T12:28:09.785Z,22.48
2022-09-09T12:29:24.569Z,22.02
2022-09-09T12:30:31.469Z,22.00
2022-09-09T12:31:37.846Z,22.04
2022-09-09T12:32:42.485Z,22.21
2022-09-09T12:33:48.254Z,22.33
2022-09-09T12:34:54.628Z,22.12
2022-09-09T12:36:01.161Z,21.91
2022-09-09T12:37:07.696Z,22.12
2022-09-09T12:38:13.177Z,22.21
2022-09-09T12:39:20.973Z,22.18
2022-09-09T12:40:24.781Z,22.07
2022-09-09T12:41:31.784Z,22.19
2022-09-09T12:42:41.156Z,22.24
2022-09-09T12:43:42.409Z,22.30
2022-09-09T12:44:46.599Z,22.42
2022-09-09T12:45:52.314Z,22.20
2022-09-09T12:46:57.101Z,22.13
2022-09-09T12:48:08.220Z,21.74
2022-09-09T12:49:22.418Z,21.64
2022-09-09T12:50:28.435Z,21.61
2022-09-09T12:51:31.999Z,21.68
2022-09-09T12:52:38.159Z,21.66
2022-09-09T12:53:41.841Z,21.68
2022-09-09T12:54:49.906Z,21.66
2022-09-09T12:56:00.026Z,21.92
2022-09-09T12:57:03.537Z,22.00
2022-09-09T12:58:08.290Z,22.10
2022-09-09T12:59:12.725Z,21.80
2022-09-09T13:00:16.953Z,21.81
2022-09-09T13:01:26.109Z,21.98
2022-09-09T13:02:29.578Z,21.88
2022-09-09T13:03:35.131Z,21.68
2022-09-09T13:04:38.764Z,21.59
2022-09-09T13:05:44.105Z,21.71
2022-09-09T13:06:47.609Z,21.76
2022-09-09T13:07:50.998Z,22.07
2022-09-09T13:08:55.130Z,22.02
2022-09-09T13:09:59.467Z,21.91
2022-09-09T13:11:05.837Z,21.62
2022-09-09T13:12:11.950Z,21.29
2022-09-09T13:13:19.535Z,21.17
2022-09-09T13:14:30.735Z,21.21
2022-09-09T13:15:34.274Z,20.97
2022-09-09T13:16:42.788Z,21.06
2022-09-09T13:17:43.861Z,21.25
2022-09-09T13:18:48.306Z,21.26
2022-09-09T13:19:54.529Z,21.16
2022-09-09T13:21:02.302Z,21.33
2022-09-09T13:22:17.498Z,21.47
2022-09-09T13:23:21.754Z,21.30
2022-09-09T13:24:29.964Z,21.35
2022-09-09T13:25:33.495Z,21.18
2022-09-09T13:26:37.067Z,21.17
2022-09-09T13:27:41.605Z,21.14
2022-09-09T13:28:49.294Z,21.10
2022-09-09T13:29:56.660Z,20.96
2022-09-09T13:31:06.229Z,21.17
2022-09-09T13:32:20.317Z,21.16
2022-09-09T13:33:24.714Z,21.40
2022-09-09T13:34:30.319Z,21.41
2022-09-09T13:35:35.019Z,21.39
2022-09-09T13:36:39.246Z,21.57
2022-09-09T13:37:44.283Z,21.69
2022-09-09T13:38:54.064Z,21.65
2022-09-09T13:39:58.369Z,21.33
2022-09-09T13:41:06.106Z,21.55
2022-09-09T13:42:10.104Z,21.61
2022-09-09T13:43:16.857Z,21.54
2022-09-09T13:44:22.975Z,21.34
2022-09-09T13:45:28.908Z,21.39
2022-09-09T13:46:37.091Z,21.36
2022-09-09T13:47:39.651Z,21.23
2022-09-09T13:48:42.772Z,21.14
2022-09-09T13:49:48.469Z,21.20
2022-09-09T13:51:01.749Z,21.08
2022-09-09T13:52:09.267Z,21.04
2022-09-09T13:53:12.664Z,20.93
2022-09-09T13:54:17.381Z,20.66
2022-09-09T13:55:23.291Z,20.56
2022-09-09T13:56:25.760Z,20.71
2022-09-09T13:57:28.874Z,20.82
2022-09-09T13:58:33.931Z,20.92
2022-09-09T14:00:01.237Z,20.98
2022-09-09T14:00:48.912Z,20.86
2022-09-09T14:01:55.078Z,20.73
2022-09-09T14:03:02.210Z,20.71
2022-09-09T14:04:07.787Z,20.68
2022-09-09T14:05:12.286Z,20.59
2022-09-09T14:06:15.922Z,20.46
2022-09-09T14:07:20.220Z,20.52
2022-09-09T14:08:27.423Z,20.56
2022-09-09T14:09:30.787Z,20.69
2022-09-09T14:10:40.589Z,20.81
2022-09-09T14:11:45.639Z,20.79
2022-09-09T14:12:51.729Z,20.87
2022-09-09T14:13:57.549Z,20.53
2022-09-09T14:15:03.769Z,20.66
2022-09-09T14:16:07.659Z,20.74
2022-09-09T14:17:10.476Z,20.81
2022-09-09T14:18:14.285Z,20.86
2022-09-09T14:19:18.218Z,20.95
2022-09-09T14:20:22.246Z,20.86
2022-09-09T14:21:26.091Z,20.63
2022-09-09T14:22:29.778Z,20.66
2022-09-09T14:23:34.783Z,20.55
2022-09-09T14:24:39.339Z,20.54
2022-09-09T14:25:44.363Z,20.72
2022-09-09T14:26:48.084Z,20.65
2022-09-09T14:27:54.010Z,20.67
2022-09-09T14:28:58.213Z,20.60
2022-09-09T14:30:02.564Z,20.58
2022-09-09T14:31:08.037Z,20.32
2022-09-09T14:32:12.984Z,20.35
2022-09-09T14:33:17.349Z,20.33
2022-09-09T14:34:29.106Z,20.19
2022-09-09T14:35:36.258Z,20.24
2022-09-09T14:36:39.782Z,20.32
2022-09-09T14:37:42.138Z,20.23
2022-09-09T14:38:44.913Z,20.32
2022-09-09T14:39:49.308Z,20.36
2022-09-09T14:40:52.887Z,20.38
2022-09-09T14:41:55.637Z,20.38
2022-09-09T14:42:59.242Z,20.31
2022-09-09T14:44:03.057Z,20.14
2022-09-09T14:45:08.770Z,20.21
2022-09-09T14:46:14.474Z,20.32
2022-09-09T14:47:18.785Z,20.24
2022-09-09T14:48:21.877Z,20.09
2022-09-09T14:49:25.382Z,20.19
2022-09-09T14:50:29.107Z,20.29
2022-09-09T14:51:31.451Z,20.16
2022-09-09T14:52:37.882Z,20.01